createdAt,value
2023-06-10T00:01:25.639Z,3.42
2023-06-10T00:03:53.324Z,3.00
2023-06-10T00:06:20.057Z,3.22
2023-06-10T00:08:48.329Z,3.63
2023-06-10T00:11:14.968Z,3.40
2023-06-10T00:13:41.922Z,3.10
2023-06-10T00:16:08.621Z,3.22
2023-06-10T00:18:38.128Z,3.45
2023-06-10T00:21:06.008Z,3.10
2023-06-10T00:23:32.890Z,3.15
2023-06-10T00:26:00.594Z,3.03
2023-06-10T00:28:27.191Z,3.55
2023-06-10T00:30:53.816Z,3.30
2023-06-10T00:33:20.430Z,2.88
2023-06-10T00:35:47.200Z,3.20
2023-06-10T00:38:15.929Z,3.30
2023-06-10T00:40:43.114Z,3.65
2023-06-10T00:43:10.370Z,3.00
2023-06-10T00:45:36.985Z,3.00
2023-06-10T00:48:04.937Z,3.28
2023-06-10T00:50:32.485Z,3.25
2023-06-10T00:53:00.801Z,3.70
2023-06-10T00:55:28.333Z,3.17
2023-06-10T00:57:55.625Z,2.90
2023-06-10T01:00:22.319Z,2.83
2023-06-10T01:02:50.470Z,3.60
2023-06-10T01:05:17.326Z,3.63
2023-06-10T01:08:02.613Z,2.85
2023-06-10T01:10:39.288Z,3.22
2023-06-10T01:13:13.012Z,3.45
2023-06-10T01:15:39.994Z,3.47
2023-06-10T01:18:10.779Z,3.22
2023-06-10T01:20:41.700Z,3.30
2023-06-10T01:23:09.125Z,3.40
2023-06-10T01:25:45.369Z,3.35
2023-06-10T01:28:45.022Z,3.10
2023-06-10T01:31:19.514Z,3.55
2023-06-10T01:33:53.612Z,3.15
2023-06-10T01:36:23.777Z,3.17
2023-06-10T01:38:51.574Z,3.88
2023-06-10T01:41:19.772Z,2.97
2023-06-10T01:43:47.187Z,3.65
2023-06-10T01:46:14.354Z,3.47
2023-06-10T01:48:43.050Z,3.70
2023-06-10T01:51:09.977Z,3.55
2023-06-10T01:53:36.687Z,3.53
2023-06-10T01:56:03.375Z,3.45
2023-06-10T01:58:29.988Z,3.38
2023-06-10T02:00:56.704Z,3.40
2023-06-10T02:03:23.572Z,3.42
2023-06-10T02:05:50.678Z,3.80
2023-06-10T02:08:17.581Z,3.25
2023-06-10T02:10:44.395Z,4.00
2023-06-10T02:13:11.084Z,3.72
2023-06-10T02:15:37.654Z,3.40
2023-06-10T02:18:04.551Z,3.03
2023-06-10T02:20:31.175Z,3.80
2023-06-10T02:22:58.671Z,3.00
2023-06-10T02:25:25.308Z,3.47
2023-06-10T02:27:51.870Z,3.28
2023-06-10T02:30:18.633Z,3.20
2023-06-10T02:32:48.982Z,3.63
2023-06-10T02:35:16.861Z,3.65
2023-06-10T02:37:43.647Z,3.60
2023-06-10T02:40:11.586Z,3.70
2023-06-10T02:42:38.330Z,3.80
2023-06-10T02:45:05.400Z,3.28
2023-06-10T02:47:32.079Z,3.70
2023-06-10T02:49:58.696Z,3.47
2023-06-10T02:52:26.103Z,3.60
2023-06-10T02:54:52.760Z,3.47
2023-06-10T02:57:19.358Z,3.58
2023-06-10T02:59:46.208Z,3.83
2023-06-10T03:02:13.131Z,3.80
2023-06-10T03:04:39.711Z,3.72
2023-06-10T03:07:08.384Z,3.35
2023-06-10T03:09:35.707Z,4.03
2023-06-10T03:12:02.336Z,3.53
2023-06-10T03:14:29.132Z,3.22
2023-06-10T03:16:55.775Z,3.80
2023-06-10T03:19:22.526Z,3.60
2023-06-10T03:21:51.284Z,3.17
2023-06-10T03:24:18.579Z,3.60
2023-06-10T03:26:45.226Z,3.65
2023-06-10T03:29:11.811Z,3.72
2023-06-10T03:31:39.900Z,3.75
2023-06-10T03:34:06.562Z,3.78
2023-06-10T03:36:33.162Z,3.30
2023-06-10T03:38:59.828Z,3.92
2023-06-10T03:41:26.869Z,3.47
2023-06-10T03:43:53.508Z,3.58
2023-06-10T03:46:20.380Z,3.65
2023-06-10T03:48:47.123Z,3.35
2023-06-10T03:51:13.668Z,3.05
2023-06-10T03:53:40.309Z,3.85
2023-06-10T03:56:07.034Z,3.30
2023-06-10T03:58:33.646Z,3.03
2023-06-10T04:01:00.279Z,3.40
2023-06-10T04:03:27.364Z,3.35
2023-06-10T04:05:54.006Z,3.80
2023-06-10T04:08:21.748Z,3.42
2023-06-10T04:10:48.383Z,3.80
2023-06-10T04:13:15.761Z,3.75
2023-06-10T04:15:42.361Z,4.03
2023-06-10T04:18:09.644Z,4.00
2023-06-10T04:20:36.425Z,4.20
2023-06-10T04:23:03.264Z,4.20
2023-06-10T04:25:30.012Z,3.65
2023-06-10T04:27:56.665Z,3.33
2023-06-10T04:30:23.483Z,4.05
2023-06-10T04:32:50.144Z,3.58
2023-06-10T04:35:17.058Z,4.13
2023-06-10T04:37:43.736Z,4.05
2023-06-10T04:40:11.134Z,4.05
2023-06-10T04:42:38.077Z,4.20
2023-06-10T04:45:05.158Z,3.90
2023-06-10T04:47:34.783Z,3.90
2023-06-10T04:50:02.278Z,3.80
2023-06-10T04:52:28.933Z,3.40
2023-06-10T04:54:55.673Z,4.10
2023-06-10T04:57:22.995Z,3.63
2023-06-10T04:59:49.676Z,4.07
2023-06-10T05:02:16.457Z,3.53
2023-06-10T05:04:43.146Z,4.10
2023-06-10T05:07:09.942Z,3.67
2023-06-10T05:09:36.924Z,4.05
2023-06-10T05:12:04.270Z,3.92
2023-06-10T05:14:30.853Z,4.25
2023-06-10T05:16:57.532Z,4.38
2023-06-10T05:19:24.689Z,3.83
2023-06-10T05:21:51.306Z,4.97
2023-06-10T05:24:17.958Z,4.40
2023-06-10T05:26:44.567Z,3.80
2023-06-10T05:29:11.596Z,3.78
2023-06-10T05:31:38.306Z,3.65
2023-06-10T05:34:04.937Z,3.72
2023-06-10T05:36:31.564Z,3.47
2023-06-10T05:38:58.306Z,3.53
2023-06-10T05:41:25.031Z,4.22
2023-06-10T05:43:51.649Z,4.10
2023-06-10T05:46:18.342Z,3.58
2023-06-10T05:48:44.962Z,4.15
2023-06-10T05:51:11.726Z,4.30
2023-06-10T05:53:39.396Z,4.00
2023-06-10T05:56:06.068Z,3.92
2023-06-10T05:58:32.783Z,4.00
2023-06-10T06:00:59.673Z,3.83
2023-06-10T06:03:26.526Z,3.85
2023-06-10T06:05:53.283Z,4.15
2023-06-10T06:08:20.016Z,4.18
2023-06-10T06:10:48.263Z,3.72
2023-06-10T06:13:14.886Z,3.95
2023-06-10T06:15:41.761Z,3.40
2023-06-10T06:18:08.407Z,4.20
2023-06-10T06:20:35.067Z,3.55
2023-06-10T06:23:01.712Z,4.30
2023-06-10T06:25:28.372Z,4.13
2023-06-10T06:27:55.021Z,3.92
2023-06-10T06:30:21.765Z,3.83
2023-06-10T06:32:48.400Z,4.00
2023-06-10T06:35:15.011Z,3.42
2023-06-10T06:37:41.686Z,3.97
2023-06-10T06:40:08.920Z,3.75
2023-06-10T06:42:35.499Z,3.78
2023-06-10T06:45:02.112Z,4.13
2023-06-10T06:47:28.824Z,4.03
2023-06-10T06:49:55.530Z,3.47
2023-06-10T06:52:23.343Z,4.07
2023-06-10T06:54:50.500Z,3.80
2023-06-10T06:57:17.180Z,3.10
2023-06-10T06:59:43.809Z,3.90
2023-06-10T07:02:11.669Z,3.63
2023-06-10T07:04:38.326Z,4.05
2023-06-10T07:07:06.072Z,3.90
2023-06-10T07:09:32.705Z,3.78
2023-06-10T07:11:59.276Z,3.92
2023-06-10T07:14:26.053Z,4.45
2023-06-10T07:16:52.721Z,4.03
2023-06-10T07:19:19.505Z,4.03
2023-06-10T07:21:46.227Z,3.90
2023-06-10T07:24:12.915Z,4.25
2023-06-10T07:26:39.721Z,3.85
2023-06-10T07:29:06.377Z,4.10
2023-06-10T07:31:33.075Z,3.67
2023-06-10T07:34:00.111Z,3.40
2023-06-10T07:36:28.554Z,3.90
2023-06-10T07:38:58.161Z,3.45
2023-06-10T07:41:28.696Z,4.03
2023-06-10T07:43:58.143Z,3.92
2023-06-10T07:46:25.723Z,3.63
2023-06-10T07:48:52.626Z,3.60
2023-06-10T07:51:19.349Z,4.03
2023-06-10T07:53:46.012Z,3.75
2023-06-10T07:56:12.686Z,4.20
2023-06-10T07:58:39.385Z,3.75
2023-06-10T08:01:06.175Z,3.50
2023-06-10T08:03:32.977Z,3.60
2023-06-10T08:05:59.749Z,3.83
2023-06-10T08:08:26.441Z,3.38
2023-06-10T08:10:53.119Z,4.28
2023-06-10T08:13:19.744Z,3.53
2023-06-10T08:15:48.936Z,3.72
2023-06-10T08:18:15.514Z,3.35
2023-06-10T08:20:42.136Z,3.70
2023-06-10T08:23:08.746Z,3.40
2023-06-10T08:25:35.377Z,3.42
2023-06-10T08:28:01.992Z,3.58
2023-06-10T08:30:28.586Z,3.70
2023-06-10T08:32:55.218Z,3.50
2023-06-10T08:35:21.821Z,3.47
2023-06-10T08:37:48.785Z,3.78
2023-06-10T08:40:15.608Z,3.60
2023-06-10T08:42:49.415Z,3.67
2023-06-10T08:45:19.987Z,3.97
2023-06-10T08:47:52.043Z,3.85
2023-06-10T08:50:19.759Z,3.63
2023-06-10T08:52:49.358Z,3.78
2023-06-10T08:55:32.782Z,3.92
2023-06-10T08:58:01.313Z,3.67
2023-06-10T09:00:29.815Z,3.45
2023-06-10T09:02:57.895Z,3.40
2023-06-10T09:05:25.038Z,3.33
2023-06-10T09:07:53.990Z,4.00
2023-06-10T09:10:20.952Z,3.67
2023-06-10T09:12:47.654Z,4.03
2023-06-10T09:15:15.718Z,3.30
2023-06-10T09:17:42.622Z,2.97
2023-06-10T09:20:11.022Z,3.33
2023-06-10T09:22:38.683Z,3.40
2023-06-10T09:25:11.450Z,3.53
2023-06-10T09:27:54.778Z,3.42
2023-06-10T09:30:32.457Z,3.70
2023-06-10T09:33:01.922Z,3.38
2023-06-10T09:35:31.682Z,3.42
2023-06-10T09:38:00.825Z,3.28
2023-06-10T09:40:29.090Z,3.28
2023-06-10T09:43:04.927Z,3.20
2023-06-10T09:45:35.127Z,3.28
2023-06-10T09:48:02.103Z,3.65
2023-06-10T09:50:29.143Z,3.58
2023-06-10T10:01:06.139Z,3.40
2023-06-10T10:03:32.915Z,3.63
2023-06-10T10:06:03.940Z,3.22
2023-06-10T10:08:31.441Z,3.33
2023-06-10T10:10:59.385Z,3.22
2023-06-10T10:13:28.163Z,3.40
2023-06-10T10:15:58.141Z,2.95
2023-06-10T10:18:30.202Z,3.42
2023-06-10T10:20:58.487Z,3.03
2023-06-10T10:23:45.618Z,3.42
2023-06-10T10:26:13.337Z,3.35
2023-06-10T10:28:49.185Z,3.22
2023-06-10T10:31:20.035Z,3.25
2023-06-10T10:33:53.374Z,3.42
2023-06-10T10:36:20.753Z,3.40
2023-06-10T10:38:52.651Z,3.15
2023-06-10T10:41:20.609Z,3.38
2023-06-10T10:43:47.902Z,3.40
2023-06-10T10:46:17.667Z,3.40
2023-06-10T10:48:45.334Z,3.25
2023-06-10T10:51:12.537Z,3.22
2023-06-10T10:53:40.221Z,3.63
2023-06-10T10:56:07.516Z,3.15
2023-06-10T10:58:34.583Z,3.40
2023-06-10T11:01:11.220Z,3.60
2023-06-10T11:03:45.738Z,3.53
2023-06-10T11:06:19.076Z,3.17
2023-06-10T11:08:45.886Z,3.40
2023-06-10T11:11:33.151Z,3.20
2023-06-10T11:14:02.856Z,3.28
2023-06-10T11:16:30.715Z,3.17
2023-06-10T11:18:58.054Z,3.28
2023-06-10T11:21:28.984Z,2.83
2023-06-10T11:24:00.289Z,3.20
2023-06-10T11:26:33.433Z,3.15
2023-06-10T11:29:00.259Z,3.03
2023-06-10T11:31:31.386Z,3.13
2023-06-10T11:34:00.826Z,3.22
2023-06-10T11:36:29.309Z,3.40
2023-06-10T11:39:00.137Z,3.05
2023-06-10T11:41:28.137Z,2.92
2023-06-10T11:43:58.169Z,3.22
2023-06-10T11:46:28.492Z,3.53
2023-06-10T11:49:06.465Z,3.45
2023-06-10T11:51:37.953Z,3.00
2023-06-10T11:54:05.725Z,3.20
2023-06-10T11:56:33.150Z,3.40
2023-06-10T11:59:10.696Z,4.07
2023-06-10T12:01:43.162Z,3.20
2023-06-10T12:04:13.779Z,3.30
2023-06-10T12:06:43.317Z,3.75
2023-06-10T12:09:25.310Z,2.78
2023-06-10T12:12:00.467Z,3.53
2023-06-10T12:14:56.205Z,3.20
2023-06-10T12:17:24.193Z,3.00
2023-06-10T12:19:52.257Z,2.88
2023-06-10T12:22:20.481Z,3.00
2023-06-10T12:25:02.548Z,3.80
2023-06-10T12:27:30.842Z,3.60
2023-06-10T12:30:02.323Z,3.20
2023-06-10T12:32:39.672Z,3.53
2023-06-10T12:35:07.889Z,3.38
2023-06-10T12:37:34.952Z,3.20
2023-06-10T12:40:04.137Z,3.13
2023-06-10T12:42:32.297Z,3.50
2023-06-10T12:45:01.459Z,3.20
2023-06-10T12:47:40.091Z,3.90
2023-06-10T12:50:07.604Z,3.45
2023-06-10T12:52:34.443Z,3.45
2023-06-10T12:55:02.320Z,3.25
2023-06-10T12:57:29.041Z,3.28
2023-06-10T12:59:58.346Z,3.60
2023-06-10T13:02:25.472Z,3.10
2023-06-10T13:04:52.421Z,3.05
2023-06-10T13:07:19.583Z,3.20
2023-06-10T13:09:49.967Z,3.10
2023-06-10T13:12:19.510Z,3.40
2023-06-10T13:14:49.789Z,3.80
2023-06-10T13:17:16.493Z,3.20
2023-06-10T13:19:43.303Z,3.78
2023-06-10T13:22:10.114Z,3.80
2023-06-10T13:24:36.990Z,3.50
2023-06-10T13:27:03.711Z,3.90
2023-06-10T13:29:31.972Z,3.67
2023-06-10T13:31:58.697Z,3.20
2023-06-10T13:34:25.309Z,3.20
2023-06-10T13:36:51.897Z,3.40
2023-06-10T13:39:18.673Z,3.25
2023-06-10T13:41:45.243Z,3.05
2023-06-10T13:44:11.816Z,3.58
2023-06-10T13:46:38.585Z,3.30
2023-06-10T13:49:05.381Z,3.42
2023-06-10T13:51:31.992Z,3.47
2023-06-10T13:53:58.585Z,3.60
2023-06-10T13:56:25.185Z,3.42
2023-06-10T13:58:51.780Z,3.00
2023-06-10T14:01:18.482Z,3.40
2023-06-10T14:03:45.220Z,3.15
2023-06-10T14:06:14.080Z,3.28
2023-06-10T14:08:41.006Z,2.83
2023-06-10T14:11:07.804Z,3.10
2023-06-10T14:13:35.043Z,3.78
2023-06-10T14:16:03.989Z,2.80
2023-06-10T14:18:30.712Z,3.20
2023-06-10T14:20:57.464Z,3.22
2023-06-10T14:23:25.642Z,3.15
2023-06-10T14:25:52.228Z,3.20
2023-06-10T14:28:18.802Z,3.15
2023-06-10T14:30:45.480Z,3.30
2023-06-10T14:33:12.199Z,3.08
2023-06-10T14:35:38.838Z,3.17
2023-06-10T14:38:08.272Z,3.05
2023-06-10T14:40:35.234Z,3.50
2023-06-10T14:43:02.541Z,3.17
2023-06-10T14:45:29.154Z,3.30
2023-06-10T14:47:55.842Z,3.15
2023-06-10T14:50:22.690Z,3.05
2023-06-10T14:52:49.312Z,3.20
2023-06-10T14:55:17.223Z,3.00
2023-06-10T14:57:43.864Z,3.30
2023-06-10T15:00:11.256Z,3.00
2023-06-10T15:02:37.946Z,2.88
2023-06-10T15:05:04.845Z,3.22
2023-06-10T15:07:31.464Z,3.67
2023-06-10T15:09:58.082Z,3.20
2023-06-10T15:12:26.121Z,2.88
2023-06-10T15:14:52.715Z,2.83
2023-06-10T15:17:19.311Z,2.85
2023-06-10T15:19:46.044Z,2.70
2023-06-10T15:22:14.107Z,2.85
2023-06-10T15:24:40.860Z,3.10
2023-06-10T15:27:07.797Z,2.90
2023-06-10T15:29:34.418Z,3.15
2023-06-10T15:32:03.710Z,3.10
2023-06-10T15:34:30.472Z,4.25
2023-06-10T15:36:57.153Z,3.65
2023-06-10T15:39:25.661Z,3.95
2023-06-10T15:41:52.288Z,3.30
2023-06-10T15:44:18.882Z,3.95
2023-06-10T15:46:46.508Z,3.78
2023-06-10T15:49:13.128Z,3.20
2023-06-10T15:51:42.150Z,3.20
2023-06-10T15:54:10.839Z,3.53
2023-06-10T15:56:37.423Z,3.53
2023-06-10T15:59:04.190Z,3.25
2023-06-10T16:01:30.943Z,4.00
2023-06-10T16:03:57.583Z,3.67
2023-06-10T16:06:24.266Z,4.85
2023-06-10T16:12:04.565Z,3.63
2023-06-10T16:15:02.579Z,3.10
2023-06-10T16:17:29.178Z,3.47
2023-06-10T16:19:55.868Z,3.70
2023-06-10T16:22:22.503Z,3.70
2023-06-10T16:24:49.093Z,3.47
2023-06-10T16:27:15.767Z,3.20
2023-06-10T16:29:42.381Z,3.40
2023-06-10T16:32:09.274Z,3.60
2023-06-10T16:34:35.929Z,3.30
2023-06-10T16:37:02.579Z,3.67
2023-06-10T16:39:29.201Z,3.80
2023-06-10T16:41:55.858Z,3.40
2023-06-10T16:44:22.488Z,3.70
2023-06-10T16:46:49.116Z,3.47
2023-06-10T16:49:15.970Z,3.53
2023-06-10T16:51:42.569Z,3.30
2023-06-10T16:54:09.449Z,3.35
2023-06-10T16:56:36.300Z,3.30
2023-06-10T16:59:03.184Z,3.50
2023-06-10T17:01:29.944Z,3.60
2023-06-10T17:03:56.685Z,3.35
2023-06-10T17:06:23.313Z,2.72
2023-06-10T17:08:49.979Z,2.90
2023-06-10T17:11:16.598Z,3.50
2023-06-10T17:13:43.376Z,3.55
2023-06-10T17:16:10.091Z,2.83
2023-06-10T17:18:36.789Z,2.92
2023-06-10T17:21:03.562Z,2.95
2023-06-10T17:23:30.173Z,3.33
2023-06-10T17:25:56.774Z,2.72
2023-06-10T17:28:23.386Z,3.00
2023-06-10T17:30:49.953Z,2.55
2023-06-10T17:33:16.662Z,3.20
2023-06-10T17:35:43.290Z,2.72
2023-06-10T17:38:09.861Z,3.97
2023-06-10T17:40:36.465Z,4.28
2023-06-10T17:43:03.073Z,4.32
2023-06-10T17:45:29.678Z,4.50
2023-06-10T17:47:56.447Z,4.70
2023-06-10T17:50:23.168Z,4.07
2023-06-10T17:52:49.739Z,4.13
2023-06-10T17:55:16.580Z,3.90
2023-06-10T17:57:43.197Z,3.78
2023-06-10T18:00:10.039Z,3.55
2023-06-10T18:02:36.738Z,3.17
2023-06-10T18:05:03.644Z,3.63
2023-06-10T18:07:30.519Z,3.10
2023-06-10T18:09:57.119Z,3.45
2023-06-10T18:12:24.070Z,3.15
2023-06-10T18:14:50.739Z,3.00
2023-06-10T18:17:19.679Z,3.10
2023-06-10T18:19:46.310Z,3.15
2023-06-10T18:22:13.135Z,2.55
2023-06-10T18:24:39.703Z,2.55
2023-06-10T18:27:07.584Z,2.67
2023-06-10T18:29:34.151Z,3.13
2023-06-10T18:32:02.102Z,2.78
2023-06-10T18:34:30.230Z,2.60
2023-06-10T18:36:57.031Z,2.63
2023-06-10T18:39:23.625Z,2.72
2023-06-10T18:41:50.335Z,2.38
2023-06-10T18:44:17.163Z,2.47
2023-06-10T18:46:43.812Z,2.53
2023-06-10T18:49:10.667Z,2.42
2023-06-10T18:51:37.246Z,2.58
2023-06-10T18:54:04.160Z,2.40
2023-06-10T18:56:30.843Z,2.40
2023-06-10T18:58:57.452Z,2.30
2023-06-10T19:01:24.179Z,2.65
2023-06-10T19:03:51.495Z,2.53
2023-06-10T19:06:18.145Z,2.25
2023-06-10T19:08:44.839Z,2.30
2023-06-10T19:11:13.295Z,2.60
2023-06-10T19:13:40.666Z,2.88
2023-06-10T19:16:08.390Z,2.63
2023-06-10T19:18:35.308Z,2.30
2023-06-10T19:21:04.392Z,2.53
2023-06-10T19:23:32.892Z,2.72
2023-06-10T19:26:01.156Z,2.75
2023-06-10T19:28:27.819Z,2.35
2023-06-10T19:30:54.479Z,2.42
2023-06-10T19:33:21.041Z,2.67
2023-06-10T19:35:47.733Z,3.08
2023-06-10T19:38:14.371Z,2.50
2023-06-10T19:40:41.086Z,2.83
2023-06-10T19:43:07.756Z,2.78
2023-06-10T19:45:34.343Z,2.50
2023-06-10T19:48:01.328Z,2.30
2023-06-10T19:50:28.083Z,2.40
2023-06-10T19:52:54.702Z,2.65
2023-06-10T19:55:21.434Z,2.75
2023-06-10T19:57:48.067Z,2.92
2023-06-10T20:00:16.024Z,2.70
2023-06-10T20:02:42.653Z,2.90
2023-06-10T20:05:09.553Z,2.42
2023-06-10T20:07:36.449Z,2.60
2023-06-10T20:10:03.152Z,2.83
2023-06-10T20:12:29.778Z,2.90
2023-06-10T20:14:56.397Z,2.40
2023-06-10T20:17:23.057Z,3.08
2023-06-10T20:19:53.512Z,2.70
2023-06-10T20:22:21.347Z,2.78
2023-06-10T20:24:48.501Z,2.78
2023-06-10T20:27:15.254Z,2.80
2023-06-10T20:29:42.642Z,2.78
2023-06-10T20:32:09.371Z,2.78
2023-06-10T20:34:35.978Z,2.65
2023-06-10T20:37:03.725Z,3.05
2023-06-10T20:39:30.886Z,2.45
2023-06-10T20:41:57.458Z,2.83
2023-06-10T20:44:24.072Z,2.60
2023-06-10T20:46:51.465Z,2.90
2023-06-10T20:49:19.278Z,3.08
2023-06-10T20:51:46.014Z,2.30
2023-06-10T20:54:12.624Z,2.83
2023-06-10T20:56:39.242Z,2.40
2023-06-10T20:59:05.890Z,2.60
2023-06-10T21:01:32.575Z,2.55
2023-06-10T21:03:59.378Z,2.65
2023-06-10T21:06:26.360Z,2.85
2023-06-10T21:08:53.086Z,2.65
2023-06-10T21:11:19.659Z,2.70
2023-06-10T21:13:46.224Z,2.53
2023-06-10T21:16:13.048Z,2.40
2023-06-10T21:18:39.669Z,2.60
2023-06-10T21:21:06.293Z,2.55
2023-06-10T21:23:32.946Z,2.47
2023-06-10T21:25:59.813Z,2.33
2023-06-10T21:28:26.382Z,2.42
2023-06-10T21:30:53.017Z,2.55
2023-06-10T21:33:22.425Z,2.83
2023-06-10T21:35:49.088Z,2.80
2023-06-10T21:38:15.943Z,2.30
2023-06-10T21:40:42.517Z,2.33
2023-06-10T21:43:09.060Z,2.72
2023-06-10T21:45:35.699Z,2.30
2023-06-10T21:48:02.422Z,3.40
2023-06-10T21:50:29.068Z,2.40
2023-06-10T21:55:22.457Z,2.47
2023-06-10T21:57:49.067Z,2.72
2023-06-10T22:00:16.350Z,3.42
2023-06-10T22:02:43.151Z,3.38
2023-06-10T22:05:10.173Z,3.65
2023-06-10T22:07:37.330Z,3.60
2023-06-10T22:10:04.904Z,3.20
2023-06-10T22:12:31.718Z,3.30
2023-06-10T22:14:58.441Z,2.88
2023-06-10T22:17:25.236Z,2.95
2023-06-10T22:19:51.960Z,3.33
2023-06-10T22:22:18.834Z,2.63
2023-06-10T22:24:50.935Z,2.85
2023-06-10T22:27:17.622Z,2.70
2023-06-10T22:29:44.218Z,3.40
2023-06-10T22:32:11.634Z,2.38
2023-06-10T22:34:38.641Z,2.63
2023-06-10T22:37:05.553Z,2.65
2023-06-10T22:39:32.808Z,3.40
2023-06-10T22:41:59.397Z,2.65
2023-06-10T22:44:25.979Z,2.88
2023-06-10T22:46:52.701Z,3.10
2023-06-10T22:49:20.652Z,2.70
2023-06-10T22:51:47.506Z,2.80
2023-06-10T22:54:15.399Z,2.55
2023-06-10T22:56:42.119Z,2.80
2023-06-10T22:59:08.804Z,2.38
2023-06-10T23:01:35.464Z,2.92
2023-06-10T23:04:02.437Z,2.58
2023-06-10T23:06:29.032Z,2.35
2023-06-10T23:08:55.633Z,2.33
2023-06-10T23:11:22.273Z,2.30
2023-06-10T23:13:48.851Z,2.30
2023-06-10T23:16:15.452Z,2.72
2023-06-10T23:18:42.767Z,2.13
2023-06-10T23:21:10.215Z,2.33
2023-06-10T23:23:38.536Z,2.30
2023-06-10T23:26:05.337Z,2.50
2023-06-10T23:28:32.190Z,2.30
2023-06-10T23:30:58.944Z,2.40
2023-06-10T23:33:26.916Z,2.60
2023-06-10T23:35:53.719Z,2.42
2023-06-10T23:38:20.856Z,2.50
2023-06-10T23:40:47.522Z,2.47
2023-06-10T23:43:15.515Z,2.45
2023-06-10T23:45:42.281Z,2.20
2023-06-10T23:48:08.994Z,2.10
2023-06-10T23:50:37.895Z,2.40
2023-06-10T23:53:06.508Z,2.10
2023-06-10T23:55:35.248Z,2.38
2023-06-10T23:58:05.013Z,2.33
